createdAt,value
2019-02-21T00:01:47.661Z,69.58
2019-02-21T00:04:16.149Z,69.60
2019-02-21T00:06:44.632Z,69.62
2019-02-21T00:09:13.185Z,69.69
2019-02-21T00:11:41.565Z,69.74
2019-02-21T00:14:09.973Z,69.72
2019-02-21T00:16:38.380Z,69.74
2019-02-21T00:19:06.808Z,69.76
2019-02-21T00:21:35.460Z,69.87
2019-02-21T00:24:03.879Z,69.85
2019-02-21T00:26:32.314Z,70.00
2019-02-21T00:29:01.042Z,69.91
2019-02-21T00:31:29.422Z,69.93
2019-02-21T00:33:58.081Z,69.96
2019-02-21T00:36:26.499Z,69.99
2019-02-21T00:38:54.914Z,69.95
2019-02-21T00:41:23.621Z,69.92
2019-02-21T00:43:52.012Z,69.90
2019-02-21T00:46:20.421Z,69.81
2019-02-21T00:48:49.076Z,69.74
2019-02-21T00:51:17.532Z,69.70
2019-02-21T00:53:46.192Z,69.72
2019-02-21T00:56:14.625Z,69.69
2019-02-21T00:58:43.293Z,69.57
2019-02-21T01:01:11.713Z,69.55
2019-02-21T01:03:40.120Z,69.54
2019-02-21T01:06:08.539Z,69.57
2019-02-21T01:08:37.192Z,69.54
2019-02-21T01:11:06.113Z,69.49
2019-02-21T01:13:34.516Z,69.43
2019-02-21T01:16:02.951Z,69.34
2019-02-21T01:18:31.354Z,69.27
2019-02-21T01:20:59.774Z,69.23
2019-02-21T01:23:28.217Z,69.22
2019-02-21T01:25:56.613Z,69.16
2019-02-21T01:28:25.021Z,69.09
2019-02-21T01:30:57.083Z,69.08
2019-02-21T01:33:24.089Z,69.03
2019-02-21T01:35:52.499Z,68.86
2019-02-21T01:38:20.982Z,68.97
2019-02-21T01:40:49.383Z,68.91
2019-02-21T01:43:18.109Z,68.89
2019-02-21T01:45:46.795Z,68.97
2019-02-21T01:48:15.473Z,68.99
2019-02-21T01:50:43.887Z,69.08
2019-02-21T01:53:12.307Z,69.04
2019-02-21T01:55:40.710Z,69.06
2019-02-21T01:58:09.699Z,69.00
2019-02-21T02:00:39.679Z,69.00
2019-02-21T02:03:08.395Z,69.13
2019-02-21T02:05:37.058Z,68.99
2019-02-21T02:08:05.462Z,68.77
2019-02-21T02:10:33.863Z,68.86
2019-02-21T02:13:02.289Z,68.69
2019-02-21T02:15:30.711Z,68.53
2019-02-21T02:17:59.124Z,68.30
2019-02-21T02:20:27.528Z,68.29
2019-02-21T02:22:56.191Z,68.21
2019-02-21T02:25:24.843Z,68.16
2019-02-21T02:27:53.256Z,68.06
2019-02-21T02:30:22.003Z,67.97
2019-02-21T02:32:50.421Z,67.94
2019-02-21T02:35:18.824Z,68.01
2019-02-21T02:37:47.246Z,68.01
2019-02-21T02:40:15.917Z,68.05
2019-02-21T02:42:44.343Z,68.08
2019-02-21T02:45:12.827Z,68.05
2019-02-21T02:47:41.300Z,68.06
2019-02-21T02:50:10.094Z,68.05
2019-02-21T02:52:38.586Z,68.14
2019-02-21T02:55:07.166Z,68.20
2019-02-21T02:57:35.630Z,68.23
2019-02-21T03:00:06.431Z,68.15
2019-02-21T03:02:34.845Z,68.19
2019-02-21T03:05:03.260Z,68.28
2019-02-21T03:07:31.664Z,68.27
2019-02-21T03:10:00.137Z,68.28
2019-02-21T03:12:28.672Z,68.20
2019-02-21T03:14:57.089Z,68.11
2019-02-21T03:17:25.754Z,68.03
2019-02-21T03:19:54.159Z,68.09
2019-02-21T03:22:22.599Z,68.21
2019-02-21T03:24:51.063Z,68.15
2019-02-21T03:27:19.861Z,68.21
2019-02-21T03:29:48.266Z,68.27
2019-02-21T03:32:16.703Z,68.50
2019-02-21T03:34:45.508Z,68.66
2019-02-21T03:37:14.103Z,68.93
2019-02-21T03:39:42.515Z,69.07
2019-02-21T03:42:11.020Z,69.18
2019-02-21T03:44:39.422Z,69.19
2019-02-21T03:47:08.098Z,69.32
2019-02-21T03:49:36.755Z,69.52
2019-02-21T03:52:05.178Z,69.66
2019-02-21T03:54:33.856Z,70.06
2019-02-21T03:57:02.266Z,70.17
2019-02-21T03:59:30.677Z,70.44
2019-02-21T04:02:05.415Z,70.42
2019-02-21T04:04:29.641Z,70.50
2019-02-21T04:06:58.058Z,70.55
2019-02-21T04:09:26.459Z,70.65
2019-02-21T04:11:54.872Z,70.79
2019-02-21T04:14:23.291Z,71.00
2019-02-21T04:16:51.715Z,71.06
2019-02-21T04:19:20.115Z,71.05
2019-02-21T04:21:48.517Z,71.09
2019-02-21T04:24:16.938Z,71.14
2019-02-21T04:26:45.345Z,71.39
2019-02-21T04:29:13.771Z,71.39
2019-02-21T04:31:42.185Z,71.67
2019-02-21T04:34:10.609Z,71.58
2019-02-21T04:36:39.014Z,71.62
2019-02-21T04:39:07.436Z,71.69
2019-02-21T04:41:36.226Z,71.72
2019-02-21T04:44:04.703Z,71.79
2019-02-21T04:46:33.072Z,71.81
2019-02-21T04:49:01.483Z,71.91
2019-02-21T04:51:29.905Z,71.87
2019-02-21T04:53:58.319Z,71.86
2019-02-21T04:56:27.013Z,71.98
2019-02-21T04:58:55.453Z,72.02
2019-02-21T05:01:23.842Z,72.11
2019-02-21T05:03:52.238Z,72.13
2019-02-21T05:06:20.947Z,72.20
2019-02-21T05:08:49.352Z,72.24
2019-02-21T05:11:17.779Z,72.35
2019-02-21T05:13:46.487Z,72.38
2019-02-21T05:16:15.206Z,72.61
2019-02-21T05:18:43.967Z,72.68
2019-02-21T05:21:12.377Z,72.80
2019-02-21T05:23:40.783Z,72.78
2019-02-21T05:26:11.113Z,72.86
2019-02-21T05:28:41.248Z,72.82
2019-02-21T05:31:11.789Z,72.86
2019-02-21T05:33:56.841Z,72.84
2019-02-21T05:36:43.363Z,72.81
2019-02-21T05:39:25.357Z,72.82
2019-02-21T05:42:01.625Z,72.76
2019-02-21T05:44:33.637Z,72.71
2019-02-21T05:47:06.582Z,72.73
2019-02-21T05:49:39.667Z,72.75
2019-02-21T05:52:18.762Z,72.75
2019-02-21T05:54:48.819Z,72.79
2019-02-21T05:57:24.790Z,72.91
2019-02-21T06:00:11.395Z,72.97
2019-02-21T06:02:59.682Z,72.93
2019-02-21T06:05:35.699Z,72.90
2019-02-21T06:08:08.434Z,72.94
2019-02-21T06:10:44.043Z,72.95
2019-02-21T06:13:23.260Z,72.97
2019-02-21T06:15:55.775Z,72.95
2019-02-21T06:18:31.941Z,72.96
2019-02-21T06:21:16.944Z,72.98
2019-02-21T06:23:49.701Z,73.00
2019-02-21T06:26:19.758Z,73.28
2019-02-21T06:28:49.823Z,73.14
2019-02-21T06:31:18.229Z,73.21
2019-02-21T06:33:49.328Z,73.27
2019-02-21T06:36:16.792Z,73.32
2019-02-21T06:38:45.218Z,73.28
2019-02-21T06:41:13.619Z,73.32
2019-02-21T06:43:42.124Z,73.35
2019-02-21T06:46:10.543Z,73.40
2019-02-21T06:48:38.941Z,73.37
2019-02-21T06:51:07.366Z,73.38
2019-02-21T06:53:35.781Z,73.41
2019-02-21T06:56:04.178Z,73.46
2019-02-21T06:58:32.608Z,73.45
2019-02-21T07:01:01.026Z,73.54
2019-02-21T07:03:29.426Z,73.51
2019-02-21T07:05:58.115Z,73.49
2019-02-21T07:08:26.517Z,73.54
2019-02-21T07:11:05.439Z,73.53
2019-02-21T07:13:27.008Z,73.50
2019-02-21T07:15:55.635Z,73.49
2019-02-21T07:18:24.043Z,73.41
2019-02-21T07:20:52.787Z,73.61
2019-02-21T07:23:21.770Z,73.35
2019-02-21T07:25:51.362Z,73.25
2019-02-21T07:28:19.771Z,72.98
2019-02-21T07:30:49.071Z,72.82
2019-02-21T07:33:27.759Z,72.66
2019-02-21T07:35:48.019Z,72.52
2019-02-21T07:38:17.286Z,72.50
2019-02-21T07:40:45.841Z,72.58
2019-02-21T07:43:14.249Z,72.47
2019-02-21T07:45:42.669Z,72.42
2019-02-21T07:48:11.078Z,72.38
2019-02-21T07:50:39.498Z,72.52
2019-02-21T07:53:07.910Z,72.67
2019-02-21T07:55:36.330Z,72.74
2019-02-21T07:58:04.804Z,72.74
2019-02-21T08:00:33.218Z,72.85
2019-02-21T08:03:01.629Z,72.80
2019-02-21T08:05:30.051Z,72.63
2019-02-21T08:07:58.471Z,72.58
2019-02-21T08:10:33.487Z,72.58
2019-02-21T08:12:57.384Z,72.72
2019-02-21T08:15:27.760Z,72.82
2019-02-21T08:17:55.876Z,73.11
2019-02-21T08:20:33.645Z,73.17
2019-02-21T08:22:54.423Z,73.31
2019-02-21T08:25:22.831Z,73.61
2019-02-21T08:27:51.579Z,73.74
2019-02-21T08:30:19.977Z,73.84
2019-02-21T08:33:01.538Z,73.96
2019-02-21T08:35:31.235Z,74.03
2019-02-21T08:37:59.904Z,74.00
2019-02-21T08:40:28.330Z,74.20
2019-02-21T08:42:56.733Z,74.11
2019-02-21T08:45:25.208Z,74.15
2019-02-21T08:47:53.644Z,74.10
2019-02-21T08:50:22.529Z,74.05
2019-02-21T08:52:51.100Z,74.14
2019-02-21T08:55:19.905Z,74.22
2019-02-21T08:57:48.603Z,74.31
2019-02-21T09:00:17.361Z,73.94
2019-02-21T09:02:45.789Z,73.78
2019-02-21T09:05:14.431Z,73.63
2019-02-21T09:07:42.909Z,73.80
2019-02-21T09:10:12.669Z,73.70
2019-02-21T09:12:41.424Z,73.69
2019-02-21T09:15:15.211Z,73.67
2019-02-21T09:17:43.702Z,73.69
2019-02-21T09:20:12.911Z,73.70
2019-02-21T09:22:41.312Z,73.67
2019-02-21T09:25:11.669Z,73.70
2019-02-21T09:27:40.083Z,73.80
2019-02-21T09:30:13.827Z,73.91
2019-02-21T09:32:42.314Z,74.03
2019-02-21T09:35:10.745Z,74.24
2019-02-21T09:37:39.298Z,74.21
2019-02-21T09:40:10.830Z,74.24
2019-02-21T09:42:39.693Z,74.02
2019-02-21T09:45:10.926Z,73.65
2019-02-21T09:47:39.335Z,73.27
2019-02-21T09:50:09.383Z,72.95
2019-02-21T09:52:37.818Z,72.48
2019-02-21T09:55:09.523Z,71.64
2019-02-21T09:57:38.257Z,71.74
2019-02-21T10:00:13.069Z,71.72
2019-02-21T10:02:42.185Z,71.78
2019-02-21T10:05:10.749Z,71.76
2019-02-21T10:07:39.176Z,71.91
2019-02-21T10:10:10.635Z,72.07
2019-02-21T10:12:39.063Z,72.15
2019-02-21T10:15:10.130Z,72.13
2019-02-21T10:17:38.909Z,72.21
2019-02-21T10:20:12.851Z,71.84
2019-02-21T10:22:41.310Z,71.84
2019-02-21T10:25:13.053Z,71.97
2019-02-21T10:27:41.476Z,71.86
2019-02-21T10:30:13.503Z,71.63
2019-02-21T10:32:41.219Z,71.77
2019-02-21T10:35:09.781Z,71.57
2019-02-21T10:37:38.213Z,71.63
2019-02-21T10:40:12.335Z,71.60
2019-02-21T10:42:41.034Z,71.66
2019-02-21T10:45:15.186Z,71.58
2019-02-21T10:47:43.679Z,71.34
2019-02-21T10:50:17.227Z,71.38
2019-02-21T10:52:45.644Z,71.39
2019-02-21T10:55:14.815Z,71.41
2019-02-21T10:57:45.329Z,71.64
2019-02-21T11:00:16.288Z,72.04
2019-02-21T11:02:44.734Z,72.07
2019-02-21T11:05:13.481Z,72.15
2019-02-21T11:07:41.901Z,72.09
2019-02-21T11:10:12.852Z,72.34
2019-02-21T11:12:41.275Z,72.50
2019-02-21T11:15:14.678Z,72.68
2019-02-21T11:17:43.121Z,72.62
2019-02-21T11:20:14.155Z,72.55
2019-02-21T11:22:42.581Z,72.42
2019-02-21T11:25:12.034Z,72.38
2019-02-21T11:27:40.935Z,72.32
2019-02-21T11:30:14.456Z,72.30
2019-02-21T11:32:42.916Z,72.40
2019-02-21T11:35:11.471Z,72.33
2019-02-21T11:37:43.384Z,72.46
2019-02-21T11:40:12.560Z,72.58
2019-02-21T11:42:40.990Z,72.79
2019-02-21T11:45:17.399Z,73.12
2019-02-21T11:47:46.191Z,73.29
2019-02-21T11:50:17.232Z,73.53
2019-02-21T11:52:46.019Z,73.79
2019-02-21T11:55:22.467Z,73.94
2019-02-21T11:57:50.946Z,73.99
2019-02-21T12:00:24.442Z,73.85
2019-02-21T12:02:52.850Z,73.78
2019-02-21T12:05:30.688Z,73.75
2019-02-21T12:07:51.860Z,73.83
2019-02-21T12:10:20.313Z,74.02
2019-02-21T12:12:48.744Z,74.05
2019-02-21T12:15:17.644Z,74.22
2019-02-21T12:17:46.051Z,74.18
2019-02-21T12:20:18.546Z,74.21
2019-02-21T12:22:47.307Z,74.27
2019-02-21T12:25:21.495Z,74.10
2019-02-21T12:27:49.904Z,74.20
2019-02-21T12:30:20.344Z,74.05
2019-02-21T12:32:48.758Z,74.03
2019-02-21T12:35:28.779Z,74.21
2019-02-21T12:37:47.343Z,74.23
2019-02-21T12:40:20.064Z,74.28
2019-02-21T12:42:48.493Z,74.21
2019-02-21T12:45:21.186Z,74.20
2019-02-21T12:47:53.526Z,74.25
2019-02-21T12:50:19.753Z,74.37
2019-02-21T12:52:48.196Z,74.46
2019-02-21T12:55:27.177Z,74.97
2019-02-21T12:57:46.761Z,75.52
2019-02-21T13:00:19.943Z,77.10
2019-02-21T13:02:48.361Z,76.92
2019-02-21T13:05:16.765Z,76.59
2019-02-21T13:07:45.504Z,76.87
2019-02-21T13:10:21.693Z,77.07
2019-02-21T13:12:50.454Z,77.12
2019-02-21T13:15:18.887Z,77.21
2019-02-21T13:17:47.310Z,77.13
2019-02-21T13:20:15.996Z,77.76
2019-02-21T13:22:44.424Z,77.64
2019-02-21T13:25:17.158Z,77.71
2019-02-21T13:27:45.914Z,78.34
2019-02-21T13:30:19.269Z,78.19
2019-02-21T13:32:47.678Z,78.21
2019-02-21T13:35:16.476Z,78.55
2019-02-21T13:37:44.975Z,78.87
2019-02-21T13:40:16.974Z,78.79
2019-02-21T13:42:44.718Z,78.92
2019-02-21T13:45:17.386Z,79.39
2019-02-21T13:47:45.343Z,79.17
2019-02-21T13:50:17.834Z,79.26
2019-02-21T13:52:46.260Z,79.17
2019-02-21T13:55:14.678Z,79.16
2019-02-21T13:57:43.363Z,79.02
2019-02-21T14:00:20.444Z,79.15
2019-02-21T14:02:49.010Z,79.28
2019-02-21T14:05:17.743Z,79.25
2019-02-21T14:07:46.501Z,79.74
2019-02-21T14:10:15.356Z,79.90
2019-02-21T14:12:43.773Z,80.15
2019-02-21T14:15:18.096Z,80.69
2019-02-21T14:17:46.927Z,81.20
2019-02-21T14:20:15.898Z,81.91
2019-02-21T14:22:44.287Z,81.85
2019-02-21T14:25:12.707Z,82.28
2019-02-21T14:27:41.106Z,82.78
2019-02-21T14:30:19.427Z,83.25
2019-02-21T14:32:48.220Z,83.79
2019-02-21T14:35:17.032Z,84.15
2019-02-21T14:37:45.435Z,84.20
2019-02-21T14:40:15.389Z,84.90
2019-02-21T14:42:43.824Z,84.53
2019-02-21T14:45:15.043Z,84.74
2019-02-21T14:47:43.448Z,84.98
2019-02-21T14:50:12.642Z,85.25
2019-02-21T14:52:41.047Z,85.52
2019-02-21T14:55:11.807Z,85.36
2019-02-21T14:57:41.313Z,85.45
2019-02-21T15:00:21.584Z,85.82
2019-02-21T15:02:49.994Z,85.96
2019-02-21T15:05:19.255Z,86.10
2019-02-21T15:07:47.940Z,86.52
2019-02-21T15:10:16.482Z,86.47
2019-02-21T15:12:45.213Z,86.72
2019-02-21T15:15:16.715Z,87.02
2019-02-21T15:17:45.135Z,87.38
2019-02-21T15:20:15.618Z,87.33
2019-02-21T15:22:44.354Z,87.46
2019-02-21T15:25:13.045Z,87.61
2019-02-21T15:27:41.471Z,87.74
2019-02-21T15:30:18.274Z,87.99
2019-02-21T15:32:46.698Z,88.20
2019-02-21T15:35:15.290Z,88.41
2019-02-21T15:37:45.090Z,88.41
2019-02-21T15:40:14.176Z,88.51
2019-02-21T15:42:42.586Z,88.59
2019-02-21T15:45:23.347Z,88.42
2019-02-21T15:47:49.718Z,88.62
2019-02-21T15:50:19.910Z,88.73
2019-02-21T15:52:48.719Z,88.63
2019-02-21T15:55:18.461Z,88.84
2019-02-21T15:57:46.893Z,89.07
2019-02-21T16:00:20.144Z,89.17
2019-02-21T16:02:48.605Z,89.11
2019-02-21T16:05:17.312Z,89.23
2019-02-21T16:07:45.724Z,89.28
2019-02-21T16:10:20.058Z,89.23
2019-02-21T16:12:48.770Z,89.24
2019-02-21T16:15:18.176Z,89.36
2019-02-21T16:17:46.592Z,89.57
2019-02-21T16:20:16.681Z,89.59
2019-02-21T16:22:45.449Z,89.52
2019-02-21T16:25:28.079Z,89.71
2019-02-21T16:27:56.495Z,90.01
2019-02-21T16:30:24.900Z,89.74
2019-02-21T16:32:53.650Z,89.66
2019-02-21T16:35:22.051Z,89.71
2019-02-21T16:37:50.839Z,89.69
2019-02-21T16:40:20.785Z,89.89
2019-02-21T16:42:49.528Z,89.70
2019-02-21T16:45:21.919Z,89.91
2019-02-21T16:47:50.595Z,89.83
2019-02-21T16:50:29.309Z,89.76
2019-02-21T16:52:49.484Z,89.78
2019-02-21T16:55:20.052Z,89.72
2019-02-21T16:57:48.422Z,89.70
2019-02-21T17:00:22.597Z,89.71
2019-02-21T17:02:51.093Z,89.70
2019-02-21T17:05:19.825Z,89.59
2019-02-21T17:07:48.231Z,89.59
2019-02-21T17:10:17.299Z,89.61
2019-02-21T17:12:46.065Z,89.68
2019-02-21T17:15:16.386Z,89.73
2019-02-21T17:17:44.801Z,89.52
2019-02-21T17:20:18.306Z,89.57
2019-02-21T17:22:46.741Z,89.51
2019-02-21T17:25:15.977Z,89.52
2019-02-21T17:27:45.448Z,89.54
2019-02-21T17:30:18.040Z,89.65
2019-02-21T17:32:46.793Z,89.69
2019-02-21T17:35:15.641Z,89.68
2019-02-21T17:37:44.060Z,89.77
2019-02-21T17:40:15.554Z,89.82
2019-02-21T17:42:43.982Z,89.85
2019-02-21T17:45:13.141Z,90.11
2019-02-21T17:47:42.047Z,90.08
2019-02-21T17:50:13.464Z,89.96
2019-02-21T17:52:42.220Z,90.08
2019-02-21T17:55:11.470Z,89.98
2019-02-21T17:57:39.893Z,90.00
2019-02-21T18:00:21.603Z,89.92
2019-02-21T18:02:50.113Z,89.98
2019-02-21T18:05:18.520Z,90.03
2019-02-21T18:07:47.248Z,90.09
2019-02-21T18:10:16.949Z,89.95
2019-02-21T18:12:45.390Z,89.98
2019-02-21T18:15:15.367Z,89.90
2019-02-21T18:17:43.770Z,89.90
2019-02-21T18:20:14.352Z,89.87
2019-02-21T18:22:42.795Z,89.76
2019-02-21T18:25:29.298Z,89.73
2019-02-21T18:27:57.728Z,89.72
2019-02-21T18:30:26.130Z,89.75
2019-02-21T18:32:54.536Z,89.75
2019-02-21T18:35:23.049Z,89.76
2019-02-21T18:37:51.461Z,89.79
2019-02-21T18:40:22.460Z,89.77
2019-02-21T18:42:50.922Z,89.81
2019-02-21T18:45:19.417Z,89.87
2019-02-21T18:47:47.900Z,89.91
2019-02-21T18:50:16.318Z,90.04
2019-02-21T18:52:44.728Z,90.10
2019-02-21T18:55:13.483Z,90.09
2019-02-21T18:57:41.987Z,90.01
2019-02-21T19:00:19.467Z,90.00
2019-02-21T19:02:47.944Z,90.04
2019-02-21T19:05:16.416Z,90.13
2019-02-21T19:07:45.093Z,90.06
2019-02-21T19:10:16.901Z,89.95
2019-02-21T19:12:45.308Z,89.93
2019-02-21T19:15:15.373Z,90.04
2019-02-21T19:17:43.883Z,90.05
2019-02-21T19:20:17.126Z,89.97
2019-02-21T19:23:04.867Z,89.94
2019-02-21T19:25:33.553Z,89.89
2019-02-21T19:28:02.865Z,89.96
2019-02-21T19:30:40.696Z,90.05
2019-02-21T19:33:09.291Z,89.98
2019-02-21T19:35:37.718Z,90.18
2019-02-21T19:38:10.785Z,90.19
2019-02-21T19:40:39.026Z,90.14
2019-02-21T19:43:07.435Z,90.12
2019-02-21T19:45:35.855Z,90.08
2019-02-21T19:48:04.484Z,90.01
2019-02-21T19:50:33.369Z,90.06
2019-02-21T19:53:01.955Z,90.14
2019-02-21T19:55:30.896Z,90.17
2019-02-21T19:57:59.606Z,90.26
2019-02-21T20:00:30.226Z,90.16
2019-02-21T20:02:58.658Z,90.25
2019-02-21T20:05:27.521Z,90.22
2019-02-21T20:07:56.320Z,90.28
2019-02-21T20:10:25.300Z,90.32
2019-02-21T20:12:54.698Z,90.33
2019-02-21T20:15:24.088Z,90.32
2019-02-21T20:17:52.535Z,90.37
2019-02-21T20:20:28.851Z,90.46
2019-02-21T20:22:57.280Z,90.49
2019-02-21T20:25:25.707Z,90.64
2019-02-21T20:27:54.538Z,90.68
2019-02-21T20:30:23.499Z,90.78
2019-02-21T20:32:52.119Z,90.79
2019-02-21T20:35:22.593Z,90.89
2019-02-21T20:37:51.012Z,90.97
2019-02-21T20:40:19.776Z,90.99
2019-02-21T20:42:48.176Z,90.96
2019-02-21T20:45:16.664Z,91.10
2019-02-21T20:47:46.001Z,91.09
2019-02-21T20:50:14.699Z,91.15
2019-02-21T20:52:43.133Z,91.24
2019-02-21T20:55:12.222Z,91.25
2019-02-21T20:57:41.017Z,91.24
2019-02-21T21:00:13.825Z,91.28
2019-02-21T21:02:43.279Z,91.29
2019-02-21T21:05:15.009Z,91.30
2019-02-21T21:07:43.889Z,91.31
2019-02-21T21:10:15.278Z,91.32
2019-02-21T21:12:44.067Z,91.44
2019-02-21T21:15:14.028Z,91.53
2019-02-21T21:17:42.565Z,91.54
2019-02-21T21:20:17.383Z,91.49
2019-02-21T21:22:46.097Z,91.51
2019-02-21T21:25:15.981Z,91.52
2019-02-21T21:27:44.386Z,91.47
2019-02-21T21:30:14.656Z,91.42
2019-02-21T21:32:43.342Z,91.37
2019-02-21T21:35:11.836Z,91.36
2019-02-21T21:37:40.335Z,91.36
2019-02-21T21:40:15.368Z,91.32
2019-02-21T21:42:43.855Z,91.30
2019-02-21T21:45:16.807Z,91.30
2019-02-21T21:47:45.250Z,91.35
2019-02-21T21:50:18.562Z,91.38
2019-02-21T21:52:47.017Z,91.32
2019-02-21T21:55:15.501Z,91.29
2019-02-21T21:57:44.010Z,91.23
2019-02-21T22:00:23.591Z,91.19
2019-02-21T22:02:52.011Z,91.14
2019-02-21T22:05:22.462Z,91.16
2019-02-21T22:07:51.229Z,91.19
2019-02-21T22:10:19.761Z,91.18
2019-02-21T22:12:48.270Z,91.27
2019-02-21T22:15:19.921Z,91.38
2019-02-21T22:17:48.405Z,91.36
2019-02-21T22:20:17.083Z,91.48
2019-02-21T22:22:45.511Z,91.44
2019-02-21T22:25:14.552Z,91.53
2019-02-21T22:27:42.991Z,91.49
2019-02-21T22:30:19.773Z,91.58
2019-02-21T22:32:48.220Z,91.59
2019-02-21T22:35:17.022Z,91.69
2019-02-21T22:37:45.491Z,91.64
2019-02-21T22:40:18.051Z,91.62
2019-02-21T22:42:46.823Z,91.64
2019-02-21T22:45:15.626Z,91.60
2019-02-21T22:47:44.319Z,91.61
2019-02-21T22:50:17.397Z,91.60
2019-02-21T22:52:45.832Z,91.64
2019-02-21T22:55:14.565Z,91.54
2019-02-21T22:57:42.977Z,91.62
2019-02-21T23:00:53.818Z,91.63
2019-02-21T23:03:23.990Z,91.64
2019-02-21T23:06:13.492Z,91.54
2019-02-21T23:08:45.259Z,91.52
2019-02-21T23:11:13.914Z,91.46
2019-02-21T23:13:42.408Z,91.61
2019-02-21T23:16:10.916Z,91.63
2019-02-21T23:18:39.603Z,91.58
2019-02-21T23:21:08.036Z,91.63
2019-02-21T23:23:36.523Z,91.62
2019-02-21T23:26:05.250Z,91.63
2019-02-21T23:28:33.672Z,91.66
2019-02-21T23:31:02.098Z,91.63
2019-02-21T23:33:32.078Z,91.67
2019-02-21T23:36:00.502Z,91.67
2019-02-21T23:38:28.914Z,91.62
2019-02-21T23:40:57.670Z,91.59
2019-02-21T23:43:26.077Z,91.55
2019-02-21T23:45:54.835Z,91.55
2019-02-21T23:48:23.532Z,91.60
2019-02-21T23:50:51.952Z,91.63
2019-02-21T23:53:20.369Z,91.62
2019-02-21T23:55:48.790Z,91.62
2019-02-21T23:58:17.228Z,91.63
